createdAt,value
2023-05-09T00:00:49.083Z,995.79
2023-05-09T00:01:48.885Z,995.80
2023-05-09T00:02:48.816Z,995.81
2023-05-09T00:03:48.950Z,995.79
2023-05-09T00:04:48.900Z,995.82
2023-05-09T00:05:48.782Z,995.79
2023-05-09T00:06:48.769Z,995.75
2023-05-09T00:07:48.739Z,995.75
2023-05-09T00:08:48.735Z,995.76
2023-05-09T00:09:48.752Z,995.78
2023-05-09T00:10:48.768Z,995.84
2023-05-09T00:11:48.714Z,995.74
2023-05-09T00:12:48.689Z,995.79
2023-05-09T00:13:48.695Z,995.78
2023-05-09T00:14:48.675Z,995.76
2023-05-09T00:15:48.683Z,995.81
2023-05-09T00:16:48.701Z,995.70
2023-05-09T00:17:48.668Z,995.77
2023-05-09T00:18:48.662Z,995.74
2023-05-09T00:19:48.777Z,995.75
2023-05-09T00:20:48.642Z,995.69
2023-05-09T00:21:48.609Z,995.70
2023-05-09T00:22:48.663Z,995.75
2023-05-09T00:23:48.571Z,995.75
2023-05-09T00:24:49.196Z,995.69
2023-05-09T00:25:48.605Z,995.68
2023-05-09T00:26:48.608Z,995.69
2023-05-09T00:27:48.541Z,995.64
2023-05-09T00:28:48.520Z,995.67
2023-05-09T00:29:48.533Z,995.66
2023-05-09T00:30:48.556Z,995.65
2023-05-09T00:31:48.657Z,995.62
2023-05-09T00:32:48.563Z,995.62
2023-05-09T00:33:48.536Z,995.58
2023-05-09T00:34:48.477Z,995.63
2023-05-09T00:35:48.564Z,995.57
2023-05-09T00:36:48.459Z,995.55
2023-05-09T00:37:48.498Z,995.60
2023-05-09T00:38:48.603Z,995.55
2023-05-09T00:39:48.428Z,995.57
2023-05-09T00:40:48.423Z,995.53
2023-05-09T00:41:48.407Z,995.50
2023-05-09T00:42:48.438Z,995.55
2023-05-09T00:43:48.413Z,995.49
2023-05-09T00:44:48.376Z,995.53
2023-05-09T00:45:48.409Z,995.51
2023-05-09T00:46:48.331Z,995.54
2023-05-09T00:47:48.366Z,995.53
2023-05-09T00:48:49.288Z,995.46
2023-05-09T00:49:48.320Z,995.46
2023-05-09T00:50:48.364Z,995.49
2023-05-09T00:51:48.391Z,995.46
2023-05-09T00:52:48.315Z,995.42
2023-05-09T00:53:48.288Z,995.46
2023-05-09T00:54:48.292Z,995.46
2023-05-09T00:55:48.273Z,995.44
2023-05-09T00:56:48.264Z,995.47
2023-05-09T00:57:48.334Z,995.48
2023-05-09T00:58:48.248Z,995.50
2023-05-09T00:59:48.207Z,995.49
2023-05-09T01:00:48.256Z,995.47
2023-05-09T01:01:48.270Z,995.46
2023-05-09T01:02:48.269Z,995.40
2023-05-09T01:03:48.301Z,995.40
2023-05-09T01:04:48.213Z,995.44
2023-05-09T01:05:48.195Z,995.39
2023-05-09T01:06:48.794Z,995.41
2023-05-09T01:07:48.324Z,995.37
2023-05-09T01:08:48.195Z,995.39
2023-05-09T01:09:48.137Z,995.35
2023-05-09T01:10:48.219Z,995.33
2023-05-09T01:11:48.112Z,995.33
2023-05-09T01:12:48.130Z,995.32
2023-05-09T01:13:48.088Z,995.28
2023-05-09T01:14:48.063Z,995.35
2023-05-09T01:15:48.102Z,995.29
2023-05-09T01:16:48.646Z,995.30
2023-05-09T01:17:48.136Z,995.22
2023-05-09T01:18:48.067Z,995.24
2023-05-09T01:19:48.055Z,995.23
2023-05-09T01:20:48.021Z,995.20
2023-05-09T01:21:47.983Z,995.27
2023-05-09T01:22:48.047Z,995.26
2023-05-09T01:24:20.456Z,995.21
2023-05-09T01:24:48.058Z,995.18
2023-05-09T01:25:48.077Z,995.20
2023-05-09T01:26:48.007Z,995.21
2023-05-09T01:27:48.003Z,995.19
2023-05-09T01:28:47.970Z,995.21
2023-05-09T01:29:47.922Z,995.17
2023-05-09T01:30:47.979Z,995.16
2023-05-09T01:31:47.955Z,995.23
2023-05-09T01:32:47.958Z,995.16
2023-05-09T01:33:47.923Z,995.13
2023-05-09T01:34:47.940Z,995.15
2023-05-09T01:35:47.902Z,995.15
2023-05-09T01:36:47.890Z,995.15
2023-05-09T01:37:47.858Z,995.17
2023-05-09T01:38:47.925Z,995.18
2023-05-09T01:39:47.919Z,995.13
2023-05-09T01:40:47.885Z,995.13
2023-05-09T01:41:47.833Z,995.11
2023-05-09T01:42:47.818Z,995.16
2023-05-09T01:43:47.826Z,995.12
2023-05-09T01:44:47.820Z,995.18
2023-05-09T01:45:47.801Z,995.12
2023-05-09T01:46:47.795Z,995.15
2023-05-09T01:47:47.865Z,995.10
2023-05-09T01:48:47.778Z,995.10
2023-05-09T01:49:47.785Z,995.11
2023-05-09T01:50:47.702Z,995.12
2023-05-09T01:51:47.762Z,995.11
2023-05-09T01:52:47.736Z,995.16
2023-05-09T01:53:47.710Z,995.09
2023-05-09T01:54:47.735Z,995.13
2023-05-09T01:55:47.866Z,995.10
2023-05-09T01:56:48.338Z,995.12
2023-05-09T01:57:47.681Z,995.10
2023-05-09T01:58:47.661Z,995.09
2023-05-09T01:59:48.655Z,995.07
2023-05-09T02:00:47.699Z,995.04
2023-05-09T02:01:47.675Z,995.05
2023-05-09T02:02:47.739Z,995.06
2023-05-09T02:03:47.602Z,995.03
2023-05-09T02:04:47.596Z,995.06
2023-05-09T02:05:47.637Z,995.05
2023-05-09T02:06:47.555Z,995.03
2023-05-09T02:07:47.577Z,995.06
2023-05-09T02:08:48.287Z,995.02
2023-05-09T02:09:47.546Z,995.04
2023-05-09T02:10:47.578Z,995.00
2023-05-09T02:11:47.613Z,994.98
2023-05-09T02:12:47.596Z,994.95
2023-05-09T02:13:47.513Z,994.99
2023-05-09T02:14:47.500Z,994.94
2023-05-09T02:15:47.506Z,994.98
2023-05-09T02:16:47.503Z,994.95
2023-05-09T02:17:47.502Z,994.94
2023-05-09T02:18:47.451Z,994.95
2023-05-09T02:19:47.462Z,994.97
2023-05-09T02:20:47.439Z,994.93
2023-05-09T02:21:47.423Z,994.92
2023-05-09T02:22:47.633Z,994.93
2023-05-09T02:23:47.423Z,994.97
2023-05-09T02:24:47.358Z,994.90
2023-05-09T02:25:47.375Z,994.86
2023-05-09T02:26:47.350Z,994.90
2023-05-09T02:27:47.439Z,994.87
2023-05-09T02:28:47.334Z,994.85
2023-05-09T02:29:47.346Z,994.94
2023-05-09T02:30:47.332Z,994.89
2023-05-09T02:31:47.379Z,994.90
2023-05-09T02:32:47.389Z,994.90
2023-05-09T02:33:47.302Z,994.88
2023-05-09T02:34:47.310Z,994.95
2023-05-09T02:35:47.241Z,994.95
2023-05-09T02:36:47.310Z,994.89
2023-05-09T02:37:47.257Z,994.93
2023-05-09T02:38:47.248Z,994.97
2023-05-09T02:39:47.289Z,994.90
2023-05-09T02:40:47.193Z,994.91
2023-05-09T02:41:47.213Z,994.87
2023-05-09T02:42:47.226Z,994.84
2023-05-09T02:43:47.256Z,994.83
2023-05-09T02:44:47.147Z,994.81
2023-05-09T02:45:47.245Z,994.81
2023-05-09T02:46:47.211Z,994.80
2023-05-09T02:47:47.235Z,994.84
2023-05-09T02:48:47.181Z,994.81
2023-05-09T02:49:47.113Z,994.79
2023-05-09T02:50:47.094Z,994.81
2023-05-09T02:51:48.224Z,994.80
2023-05-09T02:52:47.206Z,994.78
2023-05-09T02:53:47.065Z,994.77
2023-05-09T02:54:47.063Z,994.81
2023-05-09T02:55:47.034Z,994.77
2023-05-09T02:56:47.083Z,994.79
2023-05-09T02:57:47.083Z,994.81
2023-05-09T02:58:47.057Z,994.76
2023-05-09T02:59:47.102Z,994.74
2023-05-09T03:00:47.028Z,994.73
2023-05-09T03:01:47.039Z,994.76
2023-05-09T03:02:47.077Z,994.71
2023-05-09T03:03:47.147Z,994.70
2023-05-09T03:04:46.997Z,994.74
2023-05-09T03:05:46.991Z,994.70
2023-05-09T03:06:47.060Z,994.68
2023-05-09T03:07:46.949Z,994.69
2023-05-09T03:08:46.942Z,994.68
2023-05-09T03:09:46.939Z,994.63
2023-05-09T03:10:46.883Z,994.66
2023-05-09T03:11:46.889Z,994.63
2023-05-09T03:12:46.904Z,994.61
2023-05-09T03:13:46.855Z,994.61
2023-05-09T03:14:46.906Z,994.61
2023-05-09T03:15:46.970Z,994.59
2023-05-09T03:16:46.838Z,994.59
2023-05-09T03:17:46.867Z,994.56
2023-05-09T03:18:46.827Z,994.55
2023-05-09T03:19:46.784Z,994.63
2023-05-09T03:20:46.756Z,994.61
2023-05-09T03:21:46.760Z,994.54
2023-05-09T03:22:46.761Z,994.51
2023-05-09T03:23:46.765Z,994.57
2023-05-09T03:24:46.754Z,994.60
2023-05-09T03:25:46.715Z,994.61
2023-05-09T03:26:46.706Z,994.53
2023-05-09T03:27:46.692Z,994.51
2023-05-09T03:28:46.691Z,994.55
2023-05-09T03:29:46.750Z,994.50
2023-05-09T03:30:46.677Z,994.44
2023-05-09T03:31:46.810Z,994.43
2023-05-09T03:32:46.708Z,994.43
2023-05-09T03:33:46.662Z,994.43
2023-05-09T03:34:46.622Z,994.40
2023-05-09T03:35:46.652Z,994.38
2023-05-09T03:36:46.654Z,994.44
2023-05-09T03:37:46.669Z,994.40
2023-05-09T03:38:46.584Z,994.38
2023-05-09T03:39:46.573Z,994.43
2023-05-09T03:40:46.583Z,994.35
2023-05-09T03:41:46.556Z,994.40
2023-05-09T03:42:46.563Z,994.35
2023-05-09T03:43:46.526Z,994.41
2023-05-09T03:44:46.549Z,994.42
2023-05-09T03:45:46.535Z,994.41
2023-05-09T03:46:46.525Z,994.44
2023-05-09T03:47:47.346Z,994.43
2023-05-09T03:48:46.483Z,994.42
2023-05-09T03:49:46.492Z,994.39
2023-05-09T03:50:46.470Z,994.40
2023-05-09T03:51:46.486Z,994.43
2023-05-09T03:52:46.446Z,994.37
2023-05-09T03:53:46.423Z,994.45
2023-05-09T03:54:46.415Z,994.36
2023-05-09T03:55:46.406Z,994.37
2023-05-09T03:56:46.398Z,994.42
2023-05-09T03:57:46.427Z,994.35
2023-05-09T03:58:46.457Z,994.38
2023-05-09T03:59:46.361Z,994.41
2023-05-09T04:00:46.366Z,994.45
2023-05-09T04:01:46.375Z,994.47
2023-05-09T04:02:46.435Z,994.49
2023-05-09T04:03:46.497Z,994.39
2023-05-09T04:04:46.329Z,994.44
2023-05-09T04:05:46.302Z,994.42
2023-05-09T04:06:46.274Z,994.40
2023-05-09T04:07:46.291Z,994.41
2023-05-09T04:08:46.341Z,994.34
2023-05-09T04:09:46.238Z,994.43
2023-05-09T04:10:46.253Z,994.36
2023-05-09T04:11:46.254Z,994.44
2023-05-09T04:12:46.278Z,994.42
2023-05-09T04:13:46.220Z,994.35
2023-05-09T04:14:48.721Z,994.39
2023-05-09T04:15:47.217Z,994.35
2023-05-09T04:16:46.202Z,994.35
2023-05-09T04:17:46.196Z,994.32
2023-05-09T04:18:47.157Z,994.32
2023-05-09T04:20:18.987Z,994.34
2023-05-09T04:20:46.249Z,994.37
2023-05-09T04:21:49.634Z,994.38
2023-05-09T04:22:49.505Z,994.33
2023-05-09T04:23:50.648Z,994.32
2023-05-09T04:24:47.229Z,994.34
2023-05-09T04:25:46.141Z,994.34
2023-05-09T04:26:46.113Z,994.37
2023-05-09T04:27:46.088Z,994.36
2023-05-09T04:28:46.056Z,994.31
2023-05-09T04:29:46.086Z,994.34
2023-05-09T04:30:46.070Z,994.31
2023-05-09T04:31:46.338Z,994.32
2023-05-09T04:32:46.184Z,994.35
2023-05-09T04:33:46.012Z,994.33
2023-05-09T04:34:46.013Z,994.33
2023-05-09T04:35:46.191Z,994.36
2023-05-09T04:36:45.982Z,994.29
2023-05-09T04:37:45.985Z,994.31
2023-05-09T04:38:46.004Z,994.30
2023-05-09T04:39:45.949Z,994.26
2023-05-09T04:40:45.970Z,994.27
2023-05-09T04:41:45.948Z,994.29
2023-05-09T04:42:45.907Z,994.28
2023-05-09T04:43:45.948Z,994.25
2023-05-09T04:44:45.915Z,994.19
2023-05-09T04:45:45.912Z,994.25
2023-05-09T04:46:46.132Z,994.23
2023-05-09T04:47:45.924Z,994.19
2023-05-09T04:48:45.855Z,994.21
2023-05-09T04:49:45.881Z,994.28
2023-05-09T04:50:45.843Z,994.14
2023-05-09T04:51:46.023Z,994.23
2023-05-09T04:52:45.829Z,994.24
2023-05-09T04:53:45.801Z,994.21
2023-05-09T04:54:45.929Z,994.22
2023-05-09T04:55:45.855Z,994.21
2023-05-09T04:56:45.869Z,994.18
2023-05-09T04:57:45.840Z,994.24
2023-05-09T04:58:45.800Z,994.22
2023-05-09T04:59:45.778Z,994.22
2023-05-09T05:00:45.805Z,994.16
2023-05-09T05:01:46.164Z,994.20
2023-05-09T05:02:46.039Z,994.15
2023-05-09T05:03:45.953Z,994.14
2023-05-09T05:04:45.878Z,994.16
2023-05-09T05:05:45.847Z,994.22
2023-05-09T05:06:45.904Z,994.18
2023-05-09T05:07:45.836Z,994.23
2023-05-09T05:08:45.793Z,994.14
2023-05-09T05:09:45.854Z,994.22
2023-05-09T05:10:46.299Z,994.14
2023-05-09T05:11:57.977Z,994.21
2023-05-09T05:12:48.136Z,994.21
2023-05-09T05:13:46.648Z,994.18
2023-05-09T05:14:45.836Z,994.17
2023-05-09T05:15:46.266Z,994.17
2023-05-09T05:16:45.940Z,994.15
2023-05-09T05:17:46.574Z,994.12
2023-05-09T05:18:45.819Z,994.11
2023-05-09T05:19:45.730Z,994.13
2023-05-09T05:20:45.997Z,994.10
2023-05-09T05:21:45.836Z,994.14
2023-05-09T05:22:46.484Z,994.15
2023-05-09T05:23:45.736Z,994.14
2023-05-09T05:24:45.567Z,994.13
2023-05-09T05:25:45.696Z,994.09
2023-05-09T05:26:45.606Z,994.12
2023-05-09T05:27:45.839Z,994.09
2023-05-09T05:28:45.712Z,994.07
2023-05-09T05:29:46.008Z,994.02
2023-05-09T05:30:45.687Z,993.97
2023-05-09T05:31:45.834Z,994.01
2023-05-09T05:32:45.768Z,994.02
2023-05-09T05:33:46.816Z,994.05
2023-05-09T05:34:47.328Z,993.90
2023-05-09T05:35:45.894Z,993.97
2023-05-09T05:36:45.454Z,993.95
2023-05-09T05:37:47.079Z,993.98
2023-05-09T05:38:45.938Z,993.95
2023-05-09T05:39:45.449Z,993.99
2023-05-09T05:40:45.449Z,993.96
2023-05-09T05:41:45.820Z,993.89
2023-05-09T05:42:45.694Z,993.90
2023-05-09T05:43:54.227Z,993.84
2023-05-09T05:44:47.225Z,993.80
2023-05-09T05:45:46.071Z,993.82
2023-05-09T05:46:45.407Z,993.84
2023-05-09T05:47:46.886Z,993.83
2023-05-09T05:48:47.600Z,993.82
2023-05-09T05:49:47.366Z,993.84
2023-05-09T05:50:45.580Z,993.80
2023-05-09T05:51:46.470Z,993.82
2023-05-09T05:52:45.895Z,993.82
2023-05-09T05:53:46.686Z,993.85
2023-05-09T05:54:45.621Z,993.74
2023-05-09T05:55:45.279Z,993.77
2023-05-09T05:56:47.216Z,993.79
2023-05-09T05:57:45.793Z,993.69
2023-05-09T05:58:47.143Z,993.82
2023-05-09T05:59:45.488Z,993.73
2023-05-09T06:00:45.316Z,993.83
2023-05-09T06:01:46.384Z,993.80
2023-05-09T06:02:45.190Z,993.79
2023-05-09T06:03:45.163Z,993.74
2023-05-09T06:04:44.986Z,993.81
2023-05-09T06:05:45.043Z,993.76
2023-05-09T06:06:45.028Z,993.70
2023-05-09T06:07:45.055Z,993.71
2023-05-09T06:08:45.622Z,993.74
2023-05-09T06:09:44.986Z,993.78
2023-05-09T06:10:44.980Z,993.69
2023-05-09T06:11:45.047Z,993.66
2023-05-09T06:12:44.948Z,993.68
2023-05-09T06:13:44.984Z,993.67
2023-05-09T06:14:44.926Z,993.63
2023-05-09T06:15:44.927Z,993.61
2023-05-09T06:16:44.924Z,993.65
2023-05-09T06:17:44.896Z,993.65
2023-05-09T06:18:44.847Z,993.67
2023-05-09T06:19:44.899Z,993.58
2023-05-09T06:20:44.887Z,993.61
2023-05-09T06:21:44.840Z,993.53
2023-05-09T06:22:44.832Z,993.52
2023-05-09T06:23:57.747Z,993.59
2023-05-09T06:24:46.844Z,993.57
2023-05-09T06:25:44.802Z,993.55
2023-05-09T06:26:44.782Z,993.47
2023-05-09T06:27:44.775Z,993.62
2023-05-09T06:28:44.797Z,993.61
2023-05-09T06:29:44.791Z,993.58
2023-05-09T06:30:44.794Z,993.58
2023-05-09T06:31:44.784Z,993.51
2023-05-09T06:32:44.796Z,993.49
2023-05-09T06:33:44.726Z,993.58
2023-05-09T06:34:44.710Z,993.45
2023-05-09T06:35:44.767Z,993.46
2023-05-09T06:36:44.649Z,993.44
2023-05-09T06:37:46.456Z,993.45
2023-05-09T06:38:44.707Z,993.48
2023-05-09T06:39:44.679Z,993.40
2023-05-09T06:40:44.638Z,993.40
2023-05-09T06:41:44.660Z,993.31
2023-05-09T06:42:44.657Z,993.41
2023-05-09T06:43:44.747Z,993.40
2023-05-09T06:44:44.826Z,993.36
2023-05-09T06:45:44.607Z,993.27
2023-05-09T06:46:44.617Z,993.26
2023-05-09T06:47:44.593Z,993.29
2023-05-09T06:48:44.548Z,993.26
2023-05-09T06:49:44.529Z,993.25
2023-05-09T06:50:44.534Z,993.19
2023-05-09T06:51:44.565Z,993.32
2023-05-09T06:52:45.776Z,993.24
2023-05-09T06:53:45.972Z,993.15
2023-05-09T06:54:44.536Z,993.19
2023-05-09T06:55:44.873Z,993.13
2023-05-09T06:56:44.597Z,993.16
2023-05-09T06:57:44.646Z,993.11
2023-05-09T06:58:44.539Z,993.15
2023-05-09T06:59:44.515Z,993.20
2023-05-09T07:00:44.532Z,993.13
2023-05-09T07:01:44.561Z,993.08
2023-05-09T07:02:45.521Z,993.14
2023-05-09T07:03:44.628Z,993.09
2023-05-09T07:04:44.652Z,993.07
2023-05-09T07:05:44.974Z,993.00
2023-05-09T07:06:44.509Z,993.02
2023-05-09T07:07:44.418Z,993.03
2023-05-09T07:08:44.568Z,993.06
2023-05-09T07:09:44.486Z,993.00
2023-05-09T07:10:44.372Z,993.05
2023-05-09T07:11:44.523Z,993.01
2023-05-09T07:12:44.309Z,993.02
2023-05-09T07:13:44.417Z,993.04
2023-05-09T07:14:44.651Z,993.09
2023-05-09T07:16:18.902Z,993.01
2023-05-09T07:16:44.812Z,993.01
2023-05-09T07:17:44.557Z,993.05
2023-05-09T07:18:44.302Z,993.02
2023-05-09T07:19:44.241Z,993.07
2023-05-09T07:20:44.432Z,992.88
2023-05-09T07:21:44.549Z,992.78
2023-05-09T07:22:44.421Z,992.75
2023-05-09T07:23:45.339Z,992.82
2023-05-09T07:24:44.691Z,992.85
2023-05-09T07:25:44.195Z,992.75
2023-05-09T07:26:45.025Z,992.79
2023-05-09T07:27:44.677Z,992.89
2023-05-09T07:28:44.185Z,992.80
2023-05-09T07:29:45.196Z,992.82
2023-05-09T07:30:44.937Z,992.78
2023-05-09T07:31:44.692Z,992.75
2023-05-09T07:32:44.172Z,992.79
2023-05-09T07:33:44.269Z,992.75
2023-05-09T07:34:44.313Z,992.73
2023-05-09T07:35:44.362Z,992.74
2023-05-09T07:36:44.063Z,992.66
2023-05-09T07:37:44.111Z,992.68
2023-05-09T07:38:44.334Z,992.73
2023-05-09T07:39:44.062Z,992.52
2023-05-09T07:40:44.064Z,992.72
2023-05-09T07:41:44.269Z,992.69
2023-05-09T07:42:44.105Z,992.68
2023-05-09T07:43:44.123Z,992.71
2023-05-09T07:44:44.637Z,992.65
2023-05-09T07:45:44.355Z,992.66
2023-05-09T07:46:44.192Z,992.68
2023-05-09T07:47:44.551Z,992.64
2023-05-09T07:48:43.959Z,992.53
2023-05-09T07:49:43.923Z,992.66
2023-05-09T07:50:44.330Z,992.61
2023-05-09T07:51:44.795Z,992.49
2023-05-09T07:52:44.294Z,992.56
2023-05-09T07:53:43.901Z,992.51
2023-05-09T07:54:44.039Z,992.58
2023-05-09T07:55:44.028Z,992.55
2023-05-09T07:56:43.858Z,992.54
2023-05-09T07:57:44.610Z,992.50
2023-05-09T07:58:43.944Z,992.42
2023-05-09T07:59:44.024Z,992.45
2023-05-09T08:00:43.754Z,992.43
2023-05-09T08:01:44.027Z,992.46
2023-05-09T08:02:44.273Z,992.48
2023-05-09T08:03:44.045Z,992.45
2023-05-09T08:04:44.156Z,992.42
2023-05-09T08:05:43.828Z,992.43
2023-05-09T08:06:43.844Z,992.43
2023-05-09T08:07:43.852Z,992.40
2023-05-09T08:08:43.865Z,992.29
2023-05-09T08:10:11.087Z,992.44
2023-05-09T08:10:43.960Z,992.37
2023-05-09T08:12:30.988Z,992.41
2023-05-09T08:12:44.744Z,992.32
2023-05-09T08:13:43.686Z,992.39
2023-05-09T08:14:43.926Z,992.35
2023-05-09T08:15:44.347Z,992.35
2023-05-09T08:16:43.674Z,992.31
2023-05-09T08:17:44.851Z,992.26
2023-05-09T08:18:43.641Z,992.20
2023-05-09T08:19:44.274Z,992.27
2023-05-09T08:20:43.611Z,992.18
2023-05-09T08:21:43.581Z,992.21
2023-05-09T08:22:43.648Z,992.18
2023-05-09T08:23:43.657Z,992.17
2023-05-09T08:24:43.542Z,992.05
2023-05-09T08:25:43.615Z,992.09
2023-05-09T08:26:43.516Z,992.10
2023-05-09T08:27:44.654Z,992.17
2023-05-09T08:28:43.501Z,992.08
2023-05-09T08:29:43.728Z,992.08
2023-05-09T08:30:43.524Z,992.02
2023-05-09T08:31:43.520Z,992.03
2023-05-09T08:32:43.550Z,992.13
2023-05-09T08:33:43.610Z,992.21
2023-05-09T08:34:43.418Z,992.12
2023-05-09T08:35:44.513Z,992.08
2023-05-09T08:36:43.455Z,992.08
2023-05-09T08:37:43.643Z,992.10
2023-05-09T08:38:43.499Z,992.15
2023-05-09T08:39:43.558Z,992.00
2023-05-09T08:40:43.658Z,991.97
2023-05-09T08:41:43.374Z,992.05
2023-05-09T08:42:43.363Z,991.97
2023-05-09T08:43:43.838Z,992.05
2023-05-09T08:44:43.795Z,991.99
2023-05-09T08:45:43.355Z,991.94
2023-05-09T08:46:43.365Z,991.93
2023-05-09T08:47:43.329Z,992.03
2023-05-09T08:48:43.836Z,991.91
2023-05-09T08:49:43.255Z,992.03
2023-05-09T08:50:43.308Z,991.88
2023-05-09T08:51:43.393Z,992.05
2023-05-09T08:52:43.259Z,991.89
2023-05-09T08:53:43.928Z,991.90
2023-05-09T08:54:43.822Z,991.87
2023-05-09T08:55:44.405Z,991.80
2023-05-09T08:56:43.490Z,991.81
2023-05-09T08:57:43.371Z,991.75
2023-05-09T08:58:43.736Z,991.80
2023-05-09T08:59:43.483Z,991.79
2023-05-09T09:00:43.238Z,991.72
2023-05-09T09:01:43.676Z,991.91
2023-05-09T09:02:43.373Z,991.74
2023-05-09T09:03:43.472Z,991.68
2023-05-09T09:04:43.194Z,991.69
2023-05-09T09:05:43.173Z,991.70
2023-05-09T09:06:43.188Z,991.71
2023-05-09T09:07:43.157Z,991.70
2023-05-09T09:08:43.197Z,991.71
2023-05-09T09:09:43.072Z,991.74
2023-05-09T09:10:43.211Z,991.67
2023-05-09T09:11:43.259Z,991.85
2023-05-09T09:12:42.998Z,991.83
2023-05-09T09:13:43.088Z,991.73
2023-05-09T09:14:43.031Z,991.62
2023-05-09T09:15:43.023Z,991.66
2023-05-09T09:16:43.357Z,991.67
2023-05-09T09:17:43.190Z,991.57
2023-05-09T09:18:46.662Z,991.65
2023-05-09T09:19:43.912Z,991.56
2023-05-09T09:20:42.980Z,991.62
2023-05-09T09:21:42.938Z,991.57
2023-05-09T09:22:42.958Z,991.53
2023-05-09T09:23:43.068Z,991.46
2023-05-09T09:24:42.947Z,991.41
2023-05-09T09:25:42.884Z,991.38
2023-05-09T09:26:42.886Z,991.36
2023-05-09T09:27:42.911Z,991.34
2023-05-09T09:28:42.942Z,991.32
2023-05-09T09:29:42.895Z,991.36
2023-05-09T09:30:42.843Z,991.32
2023-05-09T09:31:42.996Z,991.23
2023-05-09T09:32:42.972Z,991.22
2023-05-09T09:33:42.829Z,991.26
2023-05-09T09:34:42.941Z,991.24
2023-05-09T09:35:43.009Z,991.18
2023-05-09T09:36:42.876Z,991.21
2023-05-09T09:37:43.042Z,991.22
2023-05-09T09:38:42.861Z,991.22
2023-05-09T09:39:42.775Z,991.11
2023-05-09T09:40:42.984Z,991.08
2023-05-09T09:41:42.727Z,991.13
2023-05-09T09:42:43.359Z,991.14
2023-05-09T09:43:43.042Z,990.98
2023-05-09T09:44:42.916Z,991.04
2023-05-09T09:45:43.722Z,990.98
2023-05-09T09:46:42.801Z,990.99
2023-05-09T09:47:42.774Z,991.00
2023-05-09T09:48:42.900Z,990.87
2023-05-09T09:49:44.081Z,990.94
2023-05-09T09:50:42.631Z,990.96
2023-05-09T09:51:42.665Z,990.91
2023-05-09T09:52:42.793Z,990.83
2023-05-09T09:53:42.587Z,990.81
2023-05-09T09:54:43.183Z,990.84
2023-05-09T09:55:45.425Z,990.84
2023-05-09T09:56:42.651Z,990.77
2023-05-09T09:57:42.693Z,990.61
2023-05-09T09:58:42.585Z,990.72
2023-05-09T09:59:42.804Z,990.77
2023-05-09T10:00:42.541Z,990.76
2023-05-09T10:01:42.506Z,990.82
2023-05-09T10:02:42.699Z,990.69
2023-05-09T10:03:42.687Z,990.64
2023-05-09T10:04:42.500Z,990.64
2023-05-09T10:05:42.528Z,990.70
2023-05-09T10:06:42.507Z,990.61
2023-05-09T10:07:42.778Z,990.64
2023-05-09T10:08:42.422Z,990.55
2023-05-09T10:09:42.749Z,990.55
2023-05-09T10:10:42.642Z,990.52
2023-05-09T10:11:42.527Z,990.48
2023-05-09T10:12:42.454Z,990.55
2023-05-09T10:13:42.413Z,990.46
2023-05-09T10:14:42.410Z,990.45
2023-05-09T10:15:53.228Z,990.43
2023-05-09T10:16:44.855Z,990.42
2023-05-09T10:17:43.450Z,990.56
2023-05-09T10:18:42.655Z,990.53
2023-05-09T10:19:42.300Z,990.51
2023-05-09T10:20:42.330Z,990.33
2023-05-09T10:21:42.289Z,990.34
2023-05-09T10:22:42.343Z,990.31
2023-05-09T10:23:42.298Z,990.34
2023-05-09T10:24:42.237Z,990.43
2023-05-09T10:25:42.238Z,990.24
2023-05-09T10:27:14.683Z,990.28
2023-05-09T10:27:42.403Z,990.24
2023-05-09T10:28:42.271Z,990.28
2023-05-09T10:29:42.246Z,990.20
2023-05-09T10:30:42.212Z,990.31
2023-05-09T10:31:42.245Z,990.18
2023-05-09T10:32:42.321Z,990.27
2023-05-09T10:33:42.166Z,990.24
2023-05-09T10:34:42.204Z,990.09
2023-05-09T10:35:42.169Z,990.12
2023-05-09T10:36:42.142Z,990.19
2023-05-09T10:37:42.121Z,990.24
2023-05-09T10:38:42.115Z,990.15
2023-05-09T10:39:42.143Z,990.20
2023-05-09T10:40:42.076Z,990.14
2023-05-09T10:41:42.073Z,990.08
2023-05-09T10:42:42.142Z,990.05
2023-05-09T10:43:42.049Z,990.03
2023-05-09T10:44:42.208Z,990.00
2023-05-09T10:45:42.012Z,989.92
2023-05-09T10:46:42.086Z,989.92
2023-05-09T10:47:42.084Z,989.90
2023-05-09T10:48:41.997Z,989.89
2023-05-09T10:49:42.005Z,989.91
2023-05-09T10:50:42.034Z,990.01
2023-05-09T10:51:42.006Z,989.89
2023-05-09T10:52:41.933Z,989.91
2023-05-09T10:53:41.922Z,989.92
2023-05-09T10:54:42.024Z,989.94
2023-05-09T10:55:41.988Z,989.83
2023-05-09T10:56:41.935Z,989.84
2023-05-09T10:57:41.944Z,989.85
2023-05-09T10:58:41.940Z,989.84
2023-05-09T10:59:41.850Z,989.83
2023-05-09T11:00:41.900Z,989.89
2023-05-09T11:01:42.358Z,989.88
2023-05-09T11:02:41.889Z,989.83
2023-05-09T11:03:41.912Z,989.80
2023-05-09T11:04:41.948Z,989.77
2023-05-09T11:05:41.809Z,989.76
2023-05-09T11:06:41.817Z,989.74
2023-05-09T11:07:41.805Z,989.78
2023-05-09T11:08:41.749Z,989.80
2023-05-09T11:09:41.784Z,989.73
2023-05-09T11:10:41.842Z,989.65
2023-05-09T11:11:41.725Z,989.74
2023-05-09T11:12:41.742Z,989.74
2023-05-09T11:13:41.757Z,989.76
2023-05-09T11:14:41.833Z,989.77
2023-05-09T11:15:41.741Z,989.71
2023-05-09T11:16:41.734Z,989.65
2023-05-09T11:17:41.822Z,989.72
2023-05-09T11:18:41.770Z,989.78
2023-05-09T11:19:41.684Z,989.72
2023-05-09T11:20:41.675Z,989.77
2023-05-09T11:21:41.701Z,989.74
2023-05-09T11:22:41.668Z,989.69
2023-05-09T11:23:41.650Z,989.77
2023-05-09T11:24:41.645Z,989.79
2023-05-09T11:25:41.598Z,989.77
2023-05-09T11:26:41.655Z,989.75
2023-05-09T11:27:41.652Z,989.76
2023-05-09T11:28:41.647Z,989.70
2023-05-09T11:29:41.591Z,989.71
2023-05-09T11:30:41.638Z,989.65
2023-05-09T11:31:41.574Z,989.62
2023-05-09T11:32:41.591Z,989.74
2023-05-09T11:33:41.828Z,989.57
2023-05-09T11:34:41.503Z,989.66
2023-05-09T11:35:41.546Z,989.68
2023-05-09T11:36:41.520Z,989.63
2023-05-09T11:37:41.472Z,989.59
2023-05-09T11:38:41.570Z,989.54
2023-05-09T11:39:41.460Z,989.58
2023-05-09T11:40:41.423Z,989.60
2023-05-09T11:41:41.426Z,989.51
2023-05-09T11:42:41.468Z,989.55
2023-05-09T11:43:41.439Z,989.50
2023-05-09T11:44:41.462Z,989.57
2023-05-09T11:45:41.486Z,989.48
2023-05-09T11:46:41.483Z,989.48
2023-05-09T11:47:41.420Z,989.57
2023-05-09T11:48:41.355Z,989.63
2023-05-09T11:49:41.489Z,989.50
2023-05-09T11:50:41.349Z,989.68
2023-05-09T11:51:41.350Z,989.56
2023-05-09T11:52:41.328Z,989.45
2023-05-09T11:53:41.309Z,989.43
2023-05-09T11:54:41.331Z,989.46
2023-05-09T11:55:41.297Z,989.46
2023-05-09T11:56:41.343Z,989.46
2023-05-09T11:57:41.247Z,989.46
2023-05-09T11:58:41.206Z,989.36
2023-05-09T11:59:41.301Z,989.31
2023-05-09T12:00:41.772Z,989.38
2023-05-09T12:01:41.293Z,989.37
2023-05-09T12:02:41.391Z,989.30
2023-05-09T12:03:41.342Z,989.29
2023-05-09T12:04:41.279Z,989.35
2023-05-09T12:05:41.177Z,989.41
2023-05-09T12:06:41.206Z,989.26
2023-05-09T12:07:41.238Z,989.23
2023-05-09T12:08:41.165Z,989.18
2023-05-09T12:09:41.189Z,989.28
2023-05-09T12:10:41.206Z,989.23
2023-05-09T12:11:41.118Z,989.18
2023-05-09T12:12:41.146Z,989.18
2023-05-09T12:13:41.053Z,989.17
2023-05-09T12:14:41.145Z,989.11
2023-05-09T12:15:43.789Z,989.00
2023-05-09T12:16:41.117Z,989.06
2023-05-09T12:17:41.091Z,989.06
2023-05-09T12:18:41.243Z,989.02
2023-05-09T12:19:41.086Z,989.09
2023-05-09T12:20:41.064Z,989.11
2023-05-09T12:21:41.084Z,989.01
2023-05-09T12:22:41.017Z,989.07
2023-05-09T12:23:41.056Z,989.04
2023-05-09T12:24:41.772Z,989.03
2023-05-09T12:25:41.000Z,989.00
2023-05-09T12:26:41.069Z,989.00
2023-05-09T12:27:41.033Z,988.99
2023-05-09T12:28:40.934Z,988.97